createdAt,value
2023-01-23T00:01:23.573Z,101410.49
2023-01-23T00:03:50.359Z,101405.86
2023-01-23T00:06:18.169Z,101401.13
2023-01-23T00:08:46.513Z,101395.14
2023-01-23T00:11:20.086Z,101390.59
2023-01-23T00:13:46.806Z,101386.13
2023-01-23T00:16:18.074Z,101381.61
2023-01-23T00:18:45.207Z,101373.85
2023-01-23T00:21:15.762Z,101371.66
2023-01-23T00:23:44.843Z,101368.27
2023-01-23T00:26:16.768Z,101358.30
2023-01-23T00:28:45.331Z,101353.01
2023-01-23T00:31:25.352Z,101351.45
2023-01-23T00:34:00.606Z,101352.94
2023-01-23T00:36:36.341Z,101347.90
2023-01-23T00:39:06.729Z,101349.04
2023-01-23T00:41:33.475Z,101354.77
2023-01-23T00:44:00.112Z,101351.56
2023-01-23T00:46:26.971Z,101344.80
2023-01-23T00:48:53.662Z,101344.00
2023-01-23T00:51:20.458Z,101342.41
2023-01-23T00:53:47.157Z,101343.35
2023-01-23T00:56:13.810Z,101335.89
2023-01-23T00:58:43.505Z,101337.77
2023-01-23T01:01:10.911Z,101340.87
2023-01-23T01:03:39.018Z,101342.41
2023-01-23T01:06:08.700Z,101339.73
2023-01-23T01:08:35.648Z,101330.95
2023-01-23T01:11:02.667Z,101331.14
2023-01-23T01:13:30.960Z,101328.53
2023-01-23T01:15:57.672Z,101330.39
2023-01-23T01:18:24.509Z,101321.37
2023-01-23T01:20:51.385Z,101315.98
2023-01-23T01:23:19.206Z,101318.20
2023-01-23T01:25:46.643Z,101314.39
2023-01-23T01:28:14.028Z,101316.27
2023-01-23T01:30:42.073Z,101314.39
2023-01-23T01:33:08.869Z,101314.85
2023-01-23T01:35:35.430Z,101314.13
2023-01-23T01:38:02.304Z,101317.86
2023-01-23T01:40:32.693Z,101318.20
2023-01-23T01:43:02.636Z,101320.80
2023-01-23T01:46:14.972Z,101328.81
2023-01-23T01:49:18.737Z,101328.57
2023-01-23T01:51:59.706Z,101326.39
2023-01-23T01:54:39.220Z,101323.25
2023-01-23T01:57:27.240Z,101313.30
2023-01-23T02:00:11.691Z,101310.11
2023-01-23T02:02:47.514Z,101302.10
2023-01-23T02:05:28.208Z,101300.10
2023-01-23T02:08:19.459Z,101299.80
2023-01-23T02:10:47.274Z,101301.85
2023-01-23T02:13:36.097Z,101296.79
2023-01-23T02:16:12.358Z,101291.76
2023-01-23T02:18:44.704Z,101283.20
2023-01-23T02:21:13.909Z,101277.17
2023-01-23T02:24:03.080Z,101272.39
2023-01-23T02:26:36.777Z,101263.63
2023-01-23T02:29:05.308Z,101252.85
2023-01-23T02:31:35.469Z,101255.16
2023-01-23T02:34:02.329Z,101249.75
2023-01-23T02:36:30.643Z,101243.97
2023-01-23T02:39:19.769Z,101238.77
2023-01-23T02:41:51.674Z,101232.20
2023-01-23T02:44:25.261Z,101230.56
2023-01-23T02:46:54.684Z,101223.65
2023-01-23T02:49:22.344Z,101219.35
2023-01-23T02:51:51.280Z,101218.84
2023-01-23T02:54:18.805Z,101222.25
2023-01-23T02:56:45.891Z,101220.71
2023-01-23T02:59:31.399Z,101216.39
2023-01-23T03:01:58.847Z,101217.69
2023-01-23T03:04:25.856Z,101211.11
2023-01-23T03:06:52.967Z,101217.12
2023-01-23T03:09:19.799Z,101211.68
2023-01-23T03:11:47.397Z,101209.62
2023-01-23T03:14:17.823Z,101207.85
2023-01-23T03:21:12.692Z,101188.39
2023-01-23T03:23:41.915Z,101176.51
2023-01-23T03:26:08.530Z,101179.48
2023-01-23T03:28:54.238Z,101175.61
2023-01-23T03:31:20.976Z,101177.79
2023-01-23T03:33:48.841Z,101179.83
2023-01-23T03:36:15.581Z,101176.17
2023-01-23T03:39:04.995Z,101189.48
2023-01-23T03:41:32.534Z,101189.18
2023-01-23T03:44:02.433Z,101178.90
2023-01-23T03:46:29.351Z,101169.23
2023-01-23T03:48:56.169Z,101157.36
2023-01-23T03:51:22.891Z,101147.23
2023-01-23T03:53:50.423Z,101139.78
2023-01-23T03:56:17.099Z,101127.70
2023-01-23T03:58:43.802Z,101124.64
2023-01-23T04:01:13.318Z,101111.67
2023-01-23T04:03:41.239Z,101104.59
2023-01-23T04:06:07.993Z,101091.48
2023-01-23T04:08:34.544Z,101088.27
2023-01-23T04:11:09.893Z,101084.73
2023-01-23T04:13:37.439Z,101080.31
2023-01-23T04:16:05.534Z,101074.87
2023-01-23T04:18:33.198Z,101072.95
2023-01-23T04:21:00.654Z,101066.33
2023-01-23T04:23:27.371Z,101063.23
2023-01-23T04:25:54.199Z,101058.45
2023-01-23T04:28:21.261Z,101057.52
2023-01-23T04:30:50.597Z,101059.98
2023-01-23T04:33:28.834Z,101057.54
2023-01-23T04:35:56.896Z,101051.45
2023-01-23T04:38:26.932Z,101049.58
2023-01-23T04:40:53.655Z,101049.13
2023-01-23T04:43:20.706Z,101057.55
2023-01-23T04:45:51.676Z,101063.25
2023-01-23T04:48:46.809Z,101066.15
2023-01-23T04:51:14.922Z,101062.20
2023-01-23T04:53:42.491Z,101056.50
2023-01-23T04:56:09.075Z,101057.10
2023-01-23T04:58:36.151Z,101061.25
2023-01-23T05:01:06.087Z,101072.35
2023-01-23T05:03:35.167Z,101072.34
2023-01-23T05:06:01.945Z,101081.93
2023-01-23T05:08:28.628Z,101083.32
2023-01-23T05:11:06.901Z,101072.55
2023-01-23T05:13:33.784Z,101061.36
2023-01-23T05:16:01.302Z,101065.38
2023-01-23T05:18:29.861Z,101056.55
2023-01-23T05:20:57.185Z,101061.89
2023-01-23T05:23:24.027Z,101057.39
2023-01-23T05:25:51.170Z,101064.04
2023-01-23T05:28:17.770Z,101066.32
2023-01-23T05:30:48.084Z,101066.20
2023-01-23T05:33:23.180Z,101066.15
2023-01-23T05:35:50.234Z,101063.52
2023-01-23T05:38:16.903Z,101065.72
2023-01-23T05:40:43.813Z,101076.16
2023-01-23T05:43:15.234Z,101079.81
2023-01-23T05:46:01.910Z,101084.71
2023-01-23T05:48:50.351Z,101086.39
2023-01-23T05:51:18.396Z,101090.21
2023-01-23T05:53:45.498Z,101083.42
2023-01-23T05:56:12.573Z,101086.77
2023-01-23T05:58:48.525Z,101084.16
2023-01-23T06:01:25.431Z,101085.80
2023-01-23T06:04:10.903Z,101078.89
2023-01-23T06:06:52.464Z,101078.40
2023-01-23T06:09:19.225Z,101079.63
2023-01-23T06:11:45.965Z,101081.49
2023-01-23T06:14:12.529Z,101074.30
2023-01-23T06:16:39.596Z,101074.13
2023-01-23T06:19:07.747Z,101073.13
2023-01-23T06:21:35.772Z,101071.38
2023-01-23T06:24:04.592Z,101062.08
2023-01-23T06:26:32.512Z,101060.82
2023-01-23T06:28:59.137Z,101062.59
2023-01-23T06:31:26.655Z,101067.14
2023-01-23T06:33:54.939Z,101065.27
2023-01-23T06:36:26.595Z,101064.36
2023-01-23T06:38:53.427Z,101064.36
2023-01-23T06:41:24.499Z,101067.93
2023-01-23T06:43:53.874Z,101064.41
2023-01-23T06:46:23.017Z,101055.58
2023-01-23T06:48:52.549Z,101052.91
2023-01-23T06:51:19.321Z,101055.42
2023-01-23T06:53:46.772Z,101057.75
2023-01-23T06:56:13.649Z,101064.12
2023-01-23T06:58:45.367Z,101063.44
2023-01-23T07:01:19.838Z,101060.92
2023-01-23T07:04:12.175Z,101061.84
2023-01-23T07:06:39.807Z,101056.31
2023-01-23T07:09:07.257Z,101055.50
2023-01-23T07:11:37.087Z,101053.27
2023-01-23T07:14:05.349Z,101047.52
2023-01-23T07:16:35.252Z,101052.04
2023-01-23T07:19:02.721Z,101051.79
2023-01-23T07:21:32.548Z,101055.75
2023-01-23T07:23:59.269Z,101052.60
2023-01-23T07:26:26.119Z,101057.86
2023-01-23T07:28:54.085Z,101059.26
2023-01-23T07:31:20.809Z,101059.65
2023-01-23T07:33:47.667Z,101056.80
2023-01-23T07:36:14.868Z,101061.60
2023-01-23T07:38:41.677Z,101067.17
2023-01-23T07:41:09.029Z,101066.27
2023-01-23T07:43:35.759Z,101067.22
2023-01-23T07:46:02.844Z,101069.27
2023-01-23T07:48:29.702Z,101068.59
2023-01-23T07:50:56.725Z,101064.52
2023-01-23T07:53:23.405Z,101072.52
2023-01-23T07:55:50.085Z,101068.52
2023-01-23T07:58:16.592Z,101067.83
2023-01-23T08:00:43.386Z,101071.08
2023-01-23T08:03:10.159Z,101074.25
2023-01-23T08:05:36.773Z,101073.45
2023-01-23T08:08:13.022Z,101070.25
2023-01-23T08:10:40.955Z,101073.39
2023-01-23T08:13:08.017Z,101073.70
2023-01-23T08:15:34.645Z,101068.23
2023-01-23T08:18:01.292Z,101070.42
2023-01-23T08:20:28.167Z,101073.39
2023-01-23T08:22:55.894Z,101078.85
2023-01-23T08:25:22.467Z,101080.30
2023-01-23T08:27:49.279Z,101084.85
2023-01-23T08:30:16.471Z,101087.07
2023-01-23T08:32:43.171Z,101090.42
2023-01-23T08:35:10.096Z,101090.54
2023-01-23T08:37:37.970Z,101093.83
2023-01-23T08:40:05.522Z,101096.25
2023-01-23T08:42:32.193Z,101097.46
2023-01-23T08:44:58.875Z,101097.77
2023-01-23T08:47:25.523Z,101108.51
2023-01-23T08:49:52.289Z,101106.09
2023-01-23T08:52:18.939Z,101108.65
2023-01-23T08:54:45.466Z,101114.23
2023-01-23T08:57:12.208Z,101121.36
2023-01-23T08:59:38.729Z,101123.88
2023-01-23T09:02:05.454Z,101129.38
2023-01-23T09:04:32.240Z,101127.92
2023-01-23T09:06:59.006Z,101126.61
2023-01-23T09:09:25.568Z,101131.26
2023-01-23T09:11:52.331Z,101138.02
2023-01-23T09:14:19.034Z,101141.10
2023-01-23T09:16:45.559Z,101151.06
2023-01-23T09:19:12.915Z,101145.48
2023-01-23T09:21:40.062Z,101147.23
2023-01-23T09:24:06.799Z,101149.99
2023-01-23T09:26:33.374Z,101148.64
2023-01-23T09:29:00.101Z,101146.08
2023-01-23T09:31:26.790Z,101143.00
2023-01-23T09:33:53.543Z,101141.96
2023-01-23T09:36:25.386Z,101148.11
2023-01-23T09:39:01.146Z,101151.27
2023-01-23T09:41:29.347Z,101156.29
2023-01-23T09:44:03.117Z,101152.40
2023-01-23T09:46:45.172Z,101153.90
2023-01-23T09:49:28.960Z,101161.32
2023-01-23T09:52:12.260Z,101161.45
2023-01-23T09:54:43.316Z,101168.40
2023-01-23T09:57:27.791Z,101173.02
2023-01-23T10:00:03.952Z,101171.30
2023-01-23T10:02:31.302Z,101162.91
2023-01-23T10:04:59.737Z,101167.18
2023-01-23T10:07:36.215Z,101165.70
2023-01-23T10:10:15.257Z,101167.64
2023-01-23T10:13:04.871Z,101164.38
2023-01-23T10:15:53.768Z,101159.90
2023-01-23T10:18:28.293Z,101165.05
2023-01-23T10:21:00.779Z,101165.06
2023-01-23T10:23:35.914Z,101171.11
2023-01-23T10:26:04.306Z,101175.77
2023-01-23T10:28:39.019Z,101176.65
2023-01-23T10:31:12.461Z,101169.91
2023-01-23T10:33:41.940Z,101167.33
2023-01-23T10:36:23.975Z,101165.26
2023-01-23T10:39:05.140Z,101157.30
2023-01-23T10:41:33.836Z,101158.48
2023-01-23T10:44:01.361Z,101154.03
2023-01-23T10:46:33.410Z,101155.55
2023-01-23T10:49:01.611Z,101150.87
2023-01-23T10:51:35.195Z,101146.52
2023-01-23T10:54:17.029Z,101146.23
2023-01-23T10:57:07.742Z,101145.73
2023-01-23T10:59:39.510Z,101151.53
2023-01-23T11:02:16.021Z,101142.89
2023-01-23T11:04:46.294Z,101142.20
2023-01-23T11:07:24.979Z,101129.33
2023-01-23T11:09:53.649Z,101134.44
2023-01-23T11:12:21.972Z,101136.06
2023-01-23T11:14:49.825Z,101134.80
2023-01-23T11:17:20.668Z,101141.64
2023-01-23T11:19:51.712Z,101135.85
2023-01-23T11:22:30.407Z,101133.02
2023-01-23T11:24:58.161Z,101136.78
2023-01-23T11:27:28.403Z,101143.19
2023-01-23T11:30:25.181Z,101142.20
2023-01-23T11:33:00.016Z,101146.52
2023-01-23T11:36:00.747Z,101148.39
2023-01-23T11:38:34.476Z,101148.52
2023-01-23T11:41:04.551Z,101140.95
2023-01-23T11:43:31.820Z,101138.48
2023-01-23T11:46:17.132Z,101107.09
2023-01-23T11:49:08.778Z,101069.27
2023-01-23T11:51:49.491Z,101051.22
2023-01-23T11:54:31.249Z,101070.66
2023-01-23T11:57:27.982Z,101090.13
2023-01-23T12:00:33.457Z,101104.57
2023-01-23T12:03:12.224Z,101106.39
2023-01-23T12:05:46.158Z,101120.15
2023-01-23T12:08:32.103Z,101106.15
2023-01-23T12:11:18.143Z,101091.15
2023-01-23T12:14:12.703Z,101104.01
2023-01-23T12:17:25.038Z,101121.91
2023-01-23T12:20:16.786Z,101124.52
2023-01-23T12:23:20.528Z,101119.01
2023-01-23T12:26:06.968Z,101119.36
2023-01-23T12:28:59.697Z,101118.39
2023-01-23T12:31:41.043Z,101114.77
2023-01-23T12:34:23.454Z,101110.88
2023-01-23T12:37:10.194Z,101111.05
2023-01-23T12:40:08.582Z,101112.88
2023-01-23T12:42:43.046Z,101105.39
2023-01-23T12:45:20.804Z,101100.41
2023-01-23T12:47:58.309Z,101108.14
2023-01-23T12:50:51.226Z,101100.23
2023-01-23T12:53:23.025Z,101095.30
2023-01-23T12:55:58.280Z,101093.76
2023-01-23T12:58:28.315Z,101097.23
2023-01-23T13:01:06.984Z,101105.21
2023-01-23T13:08:10.501Z,101113.42
2023-01-23T13:11:33.971Z,101113.73
2023-01-23T13:14:01.822Z,101117.25
2023-01-23T13:16:31.987Z,101133.17
2023-01-23T13:19:19.968Z,101121.70
2023-01-23T13:22:19.088Z,101128.72
2023-01-23T13:25:12.737Z,101130.19
2023-01-23T13:27:45.587Z,101136.33
2023-01-23T13:30:31.686Z,101140.91
2023-01-23T13:33:07.509Z,101129.10
2023-01-23T13:35:40.276Z,101137.55
2023-01-23T13:38:22.313Z,101142.71
2023-01-23T13:41:18.665Z,101144.91
2023-01-23T13:43:55.887Z,101146.79
2023-01-23T14:22:09.744Z,101211.84
2023-01-23T14:24:53.287Z,101224.64
2023-01-23T14:27:41.565Z,101233.08
2023-01-23T14:30:18.874Z,101233.80
2023-01-23T14:41:11.589Z,101252.61
2023-01-23T14:43:40.655Z,101266.75
2023-01-23T14:46:35.677Z,101260.32
2023-01-23T14:49:05.459Z,101272.79
2023-01-23T14:51:32.186Z,101263.15
2023-01-23T14:53:58.782Z,101267.80
2023-01-23T14:56:29.038Z,101284.70
2023-01-23T14:58:58.471Z,101290.28
2023-01-23T15:01:27.276Z,101295.86
2023-01-23T15:04:00.764Z,101294.63
2023-01-23T15:06:31.559Z,101299.67
2023-01-23T15:09:17.784Z,101307.13
2023-01-23T15:11:45.638Z,101303.25
2023-01-23T15:14:37.525Z,101310.79
2023-01-23T15:17:15.119Z,101321.77
2023-01-23T15:19:41.833Z,101315.73
2023-01-23T15:22:28.749Z,101313.49
2023-01-23T15:24:56.737Z,101310.71
2023-01-23T15:27:32.084Z,101327.20
2023-01-23T15:30:32.884Z,101340.98
2023-01-23T15:33:07.426Z,101335.07
2023-01-23T15:35:35.818Z,101349.80
2023-01-23T15:38:05.835Z,101346.60
2023-01-23T15:40:36.797Z,101353.91
2023-01-23T15:43:10.231Z,101368.33
2023-01-23T15:45:36.970Z,101351.92
2023-01-23T15:48:03.941Z,101351.77
2023-01-23T15:50:30.671Z,101370.15
2023-01-23T15:52:57.372Z,101367.39
2023-01-23T15:55:26.637Z,101396.27
2023-01-23T15:57:54.489Z,101382.98
2023-01-23T16:00:21.411Z,101393.11
2023-01-23T16:02:56.364Z,101394.24
2023-01-23T16:09:40.493Z,101403.03
2023-01-23T16:12:16.759Z,101411.52
2023-01-23T16:14:43.467Z,101405.16
2023-01-23T16:17:16.776Z,101401.71
2023-01-23T16:19:44.257Z,101417.65
2023-01-23T16:22:22.562Z,101426.31
2023-01-23T16:24:49.859Z,101412.90
2023-01-23T16:27:18.652Z,101429.85
2023-01-23T16:29:46.552Z,101433.61
2023-01-23T16:32:13.402Z,101441.02
2023-01-23T16:34:40.140Z,101439.48
2023-01-23T16:37:11.355Z,101444.19
2023-01-23T16:39:38.262Z,101446.39
2023-01-23T16:42:05.219Z,101462.48
2023-01-23T16:44:32.049Z,101456.11
2023-01-23T16:46:58.688Z,101459.97
2023-01-23T16:53:52.701Z,101470.06
2023-01-23T16:56:32.972Z,101472.91
2023-01-23T16:59:00.261Z,101474.32
2023-01-23T17:01:28.317Z,101483.98
2023-01-23T17:04:03.104Z,101482.20
2023-01-23T17:06:30.339Z,101477.46
2023-01-23T17:08:56.974Z,101485.10
2023-01-23T17:11:26.547Z,101492.32
2023-01-23T17:13:58.671Z,101497.64
2023-01-23T17:16:27.871Z,101496.11
2023-01-23T17:18:57.387Z,101503.23
2023-01-23T17:21:27.836Z,101519.35
2023-01-23T17:23:54.501Z,101527.23
2023-01-23T17:26:21.082Z,101534.46
2023-01-23T17:28:48.206Z,101544.84
2023-01-23T17:31:24.405Z,101557.52
2023-01-23T17:33:55.784Z,101546.91
2023-01-23T17:36:22.723Z,101559.30
2023-01-23T17:38:52.664Z,101565.00
2023-01-23T17:41:19.337Z,101572.14
2023-01-23T17:43:48.433Z,101563.86
2023-01-23T17:46:24.116Z,101577.48
2023-01-23T17:48:50.875Z,101575.00
2023-01-23T17:51:19.689Z,101572.61
2023-01-23T17:53:47.223Z,101574.48
2023-01-23T17:56:14.133Z,101567.44
2023-01-23T17:58:41.299Z,101575.38
2023-01-23T18:05:28.641Z,101563.12
2023-01-23T18:07:56.010Z,101582.02
2023-01-23T18:10:28.440Z,101576.90
2023-01-23T18:13:08.723Z,101578.77
2023-01-23T18:16:04.343Z,101576.86
2023-01-23T18:18:33.356Z,101579.81
2023-01-23T18:21:02.280Z,101586.28
2023-01-23T18:23:32.209Z,101594.14
2023-01-23T18:26:04.866Z,101591.02
2023-01-23T18:28:35.886Z,101603.70
2023-01-23T18:36:01.172Z,101615.16
2023-01-23T18:42:32.306Z,101615.89
2023-01-23T18:45:03.479Z,101622.32
2023-01-23T18:47:30.391Z,101636.76
2023-01-23T18:49:57.567Z,101639.63
2023-01-23T18:52:47.877Z,101652.38
2023-01-23T18:55:49.976Z,101668.77
2023-01-23T18:58:29.882Z,101681.19
2023-01-23T19:01:16.232Z,101677.77
2023-01-23T19:03:45.008Z,101689.30
2023-01-23T19:06:24.038Z,101687.59
2023-01-23T19:08:53.652Z,101698.95
2023-01-23T19:11:32.790Z,101697.27
2023-01-23T19:14:21.534Z,101693.78
2023-01-23T19:16:58.833Z,101691.40
2023-01-23T19:19:40.489Z,101697.27
2023-01-23T19:22:12.477Z,101693.27
2023-01-23T19:24:39.444Z,101690.37
2023-01-23T19:27:20.332Z,101689.34
2023-01-23T19:29:47.156Z,101684.14
2023-01-23T19:32:14.148Z,101683.68
2023-01-23T19:34:43.080Z,101674.64
2023-01-23T19:37:09.767Z,101685.35
2023-01-23T19:39:36.300Z,101678.81
2023-01-23T19:42:03.056Z,101685.98
2023-01-23T19:44:30.760Z,101681.27
2023-01-23T19:46:57.604Z,101684.70
2023-01-23T19:49:25.367Z,101677.82
2023-01-23T19:51:52.145Z,101694.34
2023-01-23T19:54:19.244Z,101696.86
2023-01-23T19:56:45.988Z,101700.21
2023-01-23T19:59:12.833Z,101708.60
2023-01-23T20:06:08.084Z,101721.58
2023-01-23T20:08:34.901Z,101728.92
2023-01-23T20:11:01.813Z,101746.35
2023-01-23T20:13:29.162Z,101746.50
2023-01-23T20:15:55.975Z,101758.36
2023-01-23T20:18:22.660Z,101770.20
2023-01-23T20:20:49.651Z,101779.69
2023-01-23T20:23:16.468Z,101784.30
2023-01-23T20:25:43.225Z,101788.69
2023-01-23T20:28:11.300Z,101784.64
2023-01-23T20:30:39.362Z,101790.38
2023-01-23T20:33:07.515Z,101807.93
2023-01-23T20:35:35.559Z,101808.83
2023-01-23T20:38:02.569Z,101816.89
2023-01-23T20:40:29.438Z,101815.00
2023-01-23T20:42:57.016Z,101809.04
2023-01-23T20:45:25.711Z,101819.49
2023-01-23T20:47:52.572Z,101822.77
2023-01-23T20:50:19.327Z,101830.27
2023-01-23T20:53:04.568Z,101836.91
2023-01-23T20:55:32.099Z,101830.74
2023-01-23T20:58:17.734Z,101841.38
2023-01-23T21:00:44.666Z,101856.85
2023-01-23T21:03:11.423Z,101862.92
2023-01-23T21:05:38.147Z,101856.80
2023-01-23T21:08:05.007Z,101865.80
2023-01-23T21:10:31.700Z,101864.38
2023-01-23T21:12:58.299Z,101870.29
2023-01-23T21:15:25.042Z,101873.52
2023-01-23T21:17:51.678Z,101874.29
2023-01-23T21:20:18.397Z,101875.04
2023-01-23T21:22:45.123Z,101878.92
2023-01-23T21:25:12.402Z,101889.11
2023-01-23T21:27:39.008Z,101894.23
2023-01-23T21:30:06.292Z,101896.34
2023-01-23T21:32:33.022Z,101901.06
2023-01-23T21:34:59.567Z,101901.75
2023-01-23T21:37:26.162Z,101905.57
2023-01-23T21:39:52.884Z,101916.13
2023-01-23T21:42:19.499Z,101928.61
2023-01-23T21:44:46.119Z,101929.22
2023-01-23T21:47:12.725Z,101929.06
2023-01-23T21:49:39.213Z,101947.99
2023-01-23T21:52:05.940Z,101935.58
2023-01-23T21:54:32.571Z,101935.84
2023-01-23T21:56:59.421Z,101931.02
2023-01-23T22:03:27.787Z,101949.36
2023-01-23T22:05:58.262Z,101960.57
2023-01-23T22:08:24.828Z,101956.64
2023-01-23T22:10:51.471Z,101956.63
2023-01-23T22:13:18.091Z,101955.84
2023-01-23T22:15:44.716Z,101964.21
2023-01-23T22:18:11.308Z,101956.50
2023-01-23T22:20:38.511Z,101964.73
2023-01-23T22:23:05.132Z,101956.99
2023-01-23T22:25:31.756Z,101961.54
2023-01-23T22:27:58.302Z,101971.79
2023-01-23T22:30:24.996Z,101968.42
2023-01-23T22:32:51.489Z,101965.77
2023-01-23T22:35:18.107Z,101965.02
2023-01-23T22:37:44.727Z,101963.86
2023-01-23T22:40:11.610Z,101975.41
2023-01-23T22:42:38.336Z,101982.30
2023-01-23T22:45:05.486Z,101984.45
2023-01-23T22:47:32.091Z,101991.49
2023-01-23T22:49:58.663Z,101995.78
2023-01-23T22:52:25.387Z,101990.41
2023-01-23T22:54:51.939Z,101995.11
2023-01-23T22:57:18.545Z,101997.33
2023-01-23T22:59:45.135Z,102002.84
2023-01-23T23:02:11.754Z,101998.73
2023-01-23T23:04:38.390Z,101997.21
2023-01-23T23:07:05.019Z,101999.34
2023-01-23T23:09:31.568Z,101997.70
2023-01-23T23:11:58.231Z,102002.85
2023-01-23T23:14:24.915Z,102009.09
2023-01-23T23:16:51.460Z,102002.16
2023-01-23T23:19:18.031Z,102009.10
2023-01-23T23:21:44.618Z,102011.13
2023-01-23T23:24:13.604Z,102012.45
2023-01-23T23:26:40.647Z,102020.59
2023-01-23T23:29:07.326Z,102016.55
2023-01-23T23:31:34.058Z,102022.31
2023-01-23T23:34:01.049Z,102028.70
2023-01-23T23:36:28.006Z,102025.11
2023-01-23T23:38:54.666Z,102021.80
2023-01-23T23:41:21.315Z,102019.69
2023-01-23T23:43:47.937Z,102013.44
2023-01-23T23:46:16.069Z,102013.68
2023-01-23T23:48:43.876Z,102018.30
2023-01-23T23:51:13.984Z,102015.77
2023-01-23T23:53:41.249Z,102010.40
2023-01-23T23:56:08.871Z,102012.52
2023-01-23T23:58:36.828Z,102022.50
